Time;durP1;ratioP1;P1;durP2;ratioP2;P2;SDS_P1;SDS_P2;PMS_P1;PMS_P2;Temp;Humidity;BMP_temperature;BMP_pressure;BME280_temperature;BME280_humidity;BME280_pressure;Samples;Min_cycle;Max_cycle;Signal;HPM_P1;HPM_P2
2022/09/04 00:02:10;;;;;;;3.20;2.90;;;23.30;91.00;;;;;;5046987;28;20239;-42
2022/09/04 00:04:48;;;;;;;2.92;2.63;;;23.30;91.00;;;;;;5056209;28;20216;-41
2022/09/04 00:07:24;;;;;;;3.35;2.65;;;23.20;91.00;;;;;;5053214;28;20294;-42
2022/09/04 00:10:08;;;;;;;3.88;2.78;;;23.20;90.80;;;;;;5049941;28;20748;-41
2022/09/04 00:12:51;;;;;;;4.85;2.63;;;23.20;91.00;;;;;;5060048;28;20204;-41
2022/09/04 00:15:25;;;;;;;3.28;2.80;;;23.20;91.00;;;;;;5057088;28;20736;-42
2022/09/04 00:18:04;;;;;;;3.75;3.00;;;23.20;91.00;;;;;;5058504;28;20690;-42
2022/09/04 00:20:49;;;;;;;5.18;2.53;;;23.10;90.90;;;;;;5048731;28;20295;-42
2022/09/04 00:23:37;;;;;;;4.05;2.80;;;23.10;90.90;;;;;;5052863;28;20303;-41
2022/09/04 00:26:04;;;;;;;4.05;2.78;;;23.10;91.10;;;;;;5054670;28;20320;-41
2022/09/04 00:28:49;;;;;;;5.72;2.67;;;23.10;91.00;;;;;;5052907;28;20254;-41
2022/09/04 00:31:37;;;;;;;3.45;3.13;;;23.00;91.30;;;;;;5055591;28;20227;-42
2022/09/04 00:34:29;;;;;;;3.22;2.67;;;23.00;91.30;;;;;;5053378;28;20683;-41
2022/09/04 00:37:04;;;;;;;3.38;2.42;;;23.00;91.50;;;;;;5062810;28;20632;-41
2022/09/04 00:39:42;;;;;;;5.22;2.88;;;22.90;91.10;;;;;;5049395;28;20701;-41
2022/09/04 00:42:34;;;;;;;3.10;2.80;;;22.90;91.30;;;;;;5053414;28;20208;-41
2022/09/04 00:45:28;;;;;;;5.95;3.10;;;22.90;91.30;;;;;;5056283;28;20227;-41
2022/09/04 00:48:10;;;;;;;3.42;3.13;;;22.90;91.50;;;;;;5055077;28;20318;-41
2022/09/04 00:50:59;;;;;;;3.42;3.10;;;22.80;91.40;;;;;;5051661;28;20274;-41
2022/09/04 00:54:01;;;;;;;4.22;3.03;;;22.80;91.30;;;;;;5054322;28;20196;-40
2022/09/04 00:57:18;;;;;;;3.72;3.40;;;22.80;91.60;;;;;;5061054;28;20310;-41
2022/09/04 01:00:03;;;;;;;4.20;3.63;;;22.70;91.70;;;;;;5053408;28;20235;-41
2022/09/04 01:02:39;;;;;;;4.43;3.00;;;22.70;91.60;;;;;;5054137;28;20215;-41
2022/09/04 01:05:25;;;;;;;4.00;2.65;;;22.70;91.50;;;;;;5058133;28;20709;-43
2022/09/04 01:08:21;;;;;;;3.55;3.15;;;22.70;91.40;;;;;;5051868;28;20235;-44
2022/09/04 01:11:10;;;;;;;2.90;2.70;;;22.70;91.50;;;;;;5058189;28;20742;-43
2022/09/04 01:13:43;;;;;;;3.38;3.08;;;22.60;91.20;;;;;;5051839;28;20312;-44
2022/09/04 01:16:40;;;;;;;5.30;3.15;;;22.60;91.40;;;;;;5053881;28;20207;-42
2022/09/04 01:19:13;;;;;;;3.17;2.88;;;22.60;91.80;;;;;;5050265;28;20215;-43
2022/09/04 01:21:46;;;;;;;3.40;2.92;;;22.50;91.50;;;;;;5049286;28;20266;-41
2022/09/04 01:24:41;;;;;;;3.85;3.10;;;22.50;91.60;;;;;;5047555;28;20356;-41
2022/09/04 01:27:27;;;;;;;2.83;2.63;;;22.50;92.00;;;;;;5052590;28;20222;-41
2022/09/04 01:30:14;;;;;;;3.17;2.80;;;22.40;91.70;;;;;;5051123;28;20196;-41
2022/09/04 01:33:29;;;;;;;3.33;2.85;;;22.40;91.60;;;;;;5051359;28;20231;-41
2022/09/04 01:36:05;;;;;;;3.05;2.85;;;22.40;91.80;;;;;;5050490;28;20309;-41
2022/09/04 01:38:46;;;;;;;4.30;3.10;;;22.30;91.60;;;;;;5053731;28;20239;-41
2022/09/04 01:41:32;;;;;;;3.58;3.20;;;22.30;91.80;;;;;;5051575;28;20732;-42
2022/09/04 01:44:11;;;;;;;3.75;3.00;;;22.30;91.80;;;;;;5052478;28;20222;-41
2022/09/04 01:46:48;;;;;;;4.40;2.95;;;22.20;91.70;;;;;;5054418;28;20204;-40
2022/09/04 01:49:37;;;;;;;3.53;3.17;;;22.20;91.80;;;;;;5055667;28;20196;-40
2022/09/04 01:52:12;;;;;;;2.95;2.75;;;22.20;92.30;;;;;;5049402;28;20243;-40
2022/09/04 01:54:42;;;;;;;3.45;3.10;;;22.20;91.80;;;;;;5055053;28;20257;-40
2022/09/04 01:57:21;;;;;;;4.88;3.78;;;22.10;91.70;;;;;;5048130;28;20204;-41
2022/09/04 02:00:03;;;;;;;3.90;3.08;;;22.10;91.90;;;;;;5061035;28;20235;-43
2022/09/04 02:02:47;;;;;;;3.85;3.00;;;22.10;92.10;;;;;;5052611;28;20608;-42
2022/09/04 02:05:37;;;;;;;3.83;3.25;;;22.10;92.00;;;;;;5052522;28;20216;-43
2022/09/04 02:08:42;;;;;;;4.03;3.17;;;22.00;92.00;;;;;;5045033;28;20694;-40
2022/09/04 02:11:15;;;;;;;2.88;2.67;;;22.00;92.10;;;;;;5046176;28;20192;-40
2022/09/04 02:14:16;;;;;;;3.20;2.90;;;22.00;91.90;;;;;;5047301;28;20208;-40
2022/09/04 02:16:46;;;;;;;3.00;2.70;;;22.00;92.00;;;;;;5048273;28;20657;-41
2022/09/04 02:19:31;;;;;;;4.43;3.15;;;22.00;92.00;;;;;;5058478;28;20203;-42
2022/09/04 02:22:07;;;;;;;4.07;3.50;;;22.00;92.00;;;;;;5056033;28;20232;-42
2022/09/04 02:24:58;;;;;;;3.67;3.30;;;21.90;92.00;;;;;;5051077;28;20332;-43
2022/09/04 02:27:42;;;;;;;4.13;3.58;;;21.90;92.00;;;;;;5048471;28;20568;-41
2022/09/04 02:30:17;;;;;;;3.53;3.22;;;21.90;92.00;;;;;;5053389;28;20196;-41
2022/09/04 02:33:10;;;;;;;3.00;2.65;;;21.90;92.00;;;;;;5051770;28;20199;-41
2022/09/04 02:35:55;;;;;;;5.35;3.42;;;21.90;91.90;;;;;;5056894;28;20624;-41
2022/09/04 02:38:40;;;;;;;4.60;3.05;;;21.80;92.00;;;;;;5053965;28;20231;-41
2022/09/04 02:41:26;;;;;;;3.67;3.10;;;21.80;92.10;;;;;;5050432;28;20201;-42
2022/09/04 02:44:15;;;;;;;3.45;2.92;;;21.80;92.10;;;;;;5057968;28;20206;-40
2022/09/04 02:47:19;;;;;;;4.63;3.17;;;21.80;92.30;;;;;;5054110;28;20236;-40
2022/09/04 02:50:13;;;;;;;4.85;3.15;;;21.80;92.30;;;;;;5051517;28;20206;-40
2022/09/04 02:53:26;;;;;;;3.08;2.80;;;21.80;92.40;;;;;;5055106;28;20230;-40
2022/09/04 02:56:13;;;;;;;2.90;2.70;;;21.70;92.50;;;;;;5059482;28;20200;-40
2022/09/04 02:59:21;;;;;;;3.75;3.33;;;21.70;92.40;;;;;;5062149;28;20243;-40
2022/09/04 03:01:59;;;;;;;3.78;3.30;;;21.60;92.50;;;;;;5054097;28;20567;-40
2022/09/04 03:04:38;;;;;;;4.10;3.00;;;21.60;92.40;;;;;;5044379;28;20880;-40
2022/09/04 03:07:25;;;;;;;3.80;2.90;;;21.60;92.20;;;;;;5064740;28;20234;-40
2022/09/04 03:10:09;;;;;;;3.92;3.15;;;21.60;92.50;;;;;;5062326;28;20227;-40
2022/09/04 03:13:19;;;;;;;4.57;3.47;;;21.60;92.50;;;;;;5063052;28;20200;-41
2022/09/04 03:16:16;;;;;;;3.90;3.20;;;21.60;92.60;;;;;;5046434;28;20298;-40
2022/09/04 03:19:03;;;;;;;4.32;2.95;;;21.50;92.50;;;;;;5052032;28;20238;-40
2022/09/04 03:22:05;;;;;;;4.43;3.65;;;21.50;92.30;;;;;;5047450;28;20581;-40
2022/09/04 03:24:57;;;;;;;3.95;3.22;;;21.50;92.60;;;;;;5054418;28;20246;-40
2022/09/04 03:27:29;;;;;;;3.45;3.15;;;21.50;92.50;;;;;;5047872;28;20230;-40
2022/09/04 03:30:06;;;;;;;3.60;3.13;;;21.50;92.40;;;;;;5063975;28;20678;-41
2022/09/04 03:32:48;;;;;;;3.45;2.67;;;21.50;92.40;;;;;;5052090;28;20318;-41
2022/09/04 03:35:47;;;;;;;4.88;3.63;;;21.50;92.60;;;;;;5053385;28;20208;-40
2022/09/04 03:38:37;;;;;;;3.30;3.00;;;21.40;92.40;;;;;;5066185;28;20724;-40
2022/09/04 03:41:27;;;;;;;5.25;2.80;;;21.40;92.50;;;;;;5049794;28;20243;-40
2022/09/04 03:44:26;;;;;;;3.30;3.00;;;21.40;92.40;;;;;;5058021;28;20230;-40
2022/09/04 03:47:05;;;;;;;4.78;3.03;;;21.40;92.70;;;;;;5058509;28;20227;-40
2022/09/04 03:50:00;;;;;;;3.70;2.88;;;21.40;92.50;;;;;;5050295;28;20212;-40
2022/09/04 03:52:56;;;;;;;4.15;3.50;;;21.40;92.80;;;;;;5056907;28;20830;-40
2022/09/04 03:55:33;;;;;;;3.85;2.92;;;21.40;92.70;;;;;;5051057;28;20612;-40
2022/09/04 03:58:26;;;;;;;3.30;3.00;;;21.30;92.60;;;;;;5052695;28;20360;-40
2022/09/04 04:01:12;;;;;;;3.33;2.80;;;21.30;92.60;;;;;;5052859;28;20307;-41
2022/09/04 04:03:42;;;;;;;3.50;2.95;;;21.30;92.60;;;;;;5054383;28;20686;-41
2022/09/04 04:06:25;;;;;;;6.00;3.35;;;21.30;92.60;;;;;;5050655;28;20744;-42
2022/09/04 04:09:17;;;;;;;3.13;2.83;;;21.40;92.70;;;;;;5061212;28;20234;-42
2022/09/04 04:12:08;;;;;;;3.53;3.08;;;21.30;92.60;;;;;;5057219;28;20222;-41
2022/09/04 04:15:32;;;;;;;4.55;2.80;;;21.40;92.90;;;;;;5058976;28;20631;-42
2022/09/04 04:18:12;;;;;;;3.65;3.08;;;21.30;92.90;;;;;;5047655;28;20682;-41
2022/09/04 04:21:00;;;;;;;4.10;3.00;;;21.30;92.80;;;;;;5052544;28;20226;-41
2022/09/04 04:23:58;;;;;;;4.47;3.22;;;21.30;92.90;;;;;;5054371;28;20744;-42
2022/09/04 04:26:39;;;;;;;4.18;3.20;;;21.30;92.90;;;;;;5057665;28;20281;-40
2022/09/04 04:29:12;;;;;;;4.43;3.25;;;21.30;92.80;;;;;;5064956;28;20713;-41
2022/09/04 04:32:12;;;;;;;4.82;3.20;;;21.30;92.70;;;;;;5051151;28;21286;-41
2022/09/04 04:34:39;;;;;;;4.18;3.15;;;21.30;93.00;;;;;;5050631;28;20196;-41
2022/09/04 04:37:12;;;;;;;3.03;2.72;;;21.20;92.60;;;;;;5060439;28;20733;-41
2022/09/04 04:40:01;;;;;;;4.00;3.05;;;21.30;92.70;;;;;;5059357;28;20231;-42
2022/09/04 04:43:05;;;;;;;3.67;3.13;;;21.30;93.00;;;;;;5054354;28;20670;-41
2022/09/04 04:45:54;;;;;;;4.40;3.47;;;21.20;93.00;;;;;;5058594;28;20698;-42
2022/09/04 04:49:03;;;;;;;4.40;2.72;;;21.20;92.80;;;;;;5048370;28;20212;-41
2022/09/04 04:51:53;;;;;;;5.20;2.85;;;21.20;92.70;;;;;;5060683;28;20199;-41
2022/09/04 04:54:48;;;;;;;3.28;2.97;;;21.20;93.10;;;;;;5064800;28;20224;-42
2022/09/04 04:57:45;;;;;;;6.15;3.10;;;21.20;92.80;;;;;;5050051;28;20562;-41
2022/09/04 05:00:44;;;;;;;6.30;3.67;;;21.20;93.00;;;;;;5056143;28;20200;-42
2022/09/04 05:03:55;;;;;;;6.13;3.10;;;21.20;93.10;;;;;;5065060;28;20223;-41
2022/09/04 05:06:56;;;;;;;3.67;3.30;;;21.20;93.10;;;;;;5066330;28;20223;-42
2022/09/04 05:09:43;;;;;;;5.15;3.60;;;21.20;93.20;;;;;;5061491;28;20233;-41
2022/09/04 05:12:19;;;;;;;6.85;3.25;;;21.20;93.10;;;;;;5059094;28;20274;-41
2022/09/04 05:15:14;;;;;;;3.53;3.10;;;21.20;92.90;;;;;;5050034;28;20195;-41
2022/09/04 05:18:10;;;;;;;7.55;3.25;;;21.30;93.20;;;;;;5058218;28;20300;-40
2022/09/04 05:20:49;;;;;;;6.63;3.25;;;21.30;93.30;;;;;;5049818;28;20541;-40
2022/09/04 05:23:43;;;;;;;6.13;3.50;;;21.30;93.20;;;;;;5051715;28;20702;-41
2022/09/04 05:26:43;;;;;;;6.70;3.45;;;21.30;93.30;;;;;;5055765;28;20231;-41
2022/09/04 05:29:24;;;;;;;5.57;3.70;;;21.30;93.30;;;;;;5042760;28;20200;-40
2022/09/04 05:32:12;;;;;;;4.53;3.05;;;21.30;93.10;;;;;;5061346;28;20218;-41
2022/09/04 05:35:08;;;;;;;4.65;3.20;;;21.30;93.10;;;;;;5066078;28;20232;-42
2022/09/04 05:38:00;;;;;;;6.65;3.55;;;21.30;93.30;;;;;;5064414;28;20191;-41
2022/09/04 05:40:31;;;;;;;4.93;3.20;;;21.30;93.30;;;;;;5054453;28;20212;-41
2022/09/04 05:43:20;;;;;;;5.40;3.67;;;21.30;93.20;;;;;;5052691;28;20234;-41
2022/09/04 05:46:20;;;;;;;5.03;3.40;;;21.30;93.20;;;;;;5052990;28;20346;-41
2022/09/04 05:49:03;;;;;;;5.72;3.40;;;21.30;93.30;;;;;;5056631;28;20254;-41
2022/09/04 05:51:59;;;;;;;4.22;3.42;;;21.30;93.30;;;;;;5052835;28;20200;-41
2022/09/04 05:54:51;;;;;;;5.30;3.70;;;21.30;93.50;;;;;;5049642;28;20206;-41
2022/09/04 05:57:21;;;;;;;5.28;3.25;;;21.30;93.30;;;;;;5045455;28;20217;-41
2022/09/04 06:00:11;;;;;;;4.55;3.78;;;21.30;93.30;;;;;;5049871;28;20320;-41
2022/09/04 06:03:01;;;;;;;5.22;3.35;;;21.40;93.50;;;;;;5048197;28;20269;-42
2022/09/04 06:05:35;;;;;;;7.13;3.85;;;21.40;93.30;;;;;;5060185;28;20694;-40
2022/09/04 06:08:36;;;;;;;5.25;3.60;;;21.40;93.50;;;;;;5050888;28;20259;-41
2022/09/04 06:11:38;;;;;;;4.57;3.38;;;21.40;93.60;;;;;;5069106;28;20560;-40
2022/09/04 06:14:20;;;;;;;5.93;3.88;;;21.40;93.50;;;;;;5051042;28;20210;-40
2022/09/04 06:17:09;;;;;;;8.40;3.92;;;21.40;93.60;;;;;;5047924;28;20236;-41
2022/09/04 06:20:04;;;;;;;4.72;3.67;;;21.50;93.60;;;;;;5059100;28;20583;-42
2022/09/04 06:23:01;;;;;;;4.80;3.67;;;21.50;93.60;;;;;;5050335;28;20224;-41
2022/09/04 06:25:53;;;;;;;6.07;3.65;;;21.50;93.50;;;;;;5048157;28;20207;-40
2022/09/04 06:28:38;;;;;;;5.82;3.60;;;21.50;93.50;;;;;;5063817;28;20269;-44
2022/09/04 06:31:18;;;;;;;6.03;3.40;;;21.60;93.60;;;;;;5049146;28;20297;-40
2022/09/04 06:33:50;;;;;;;4.65;3.35;;;21.50;93.50;;;;;;5051723;28;20751;-41
2022/09/04 06:36:31;;;;;;;4.88;3.45;;;21.60;93.50;;;;;;5063301;28;20997;-40
2022/09/04 06:39:23;;;;;;;7.03;3.83;;;21.60;93.50;;;;;;5051010;28;20200;-40
2022/09/04 06:42:15;;;;;;;5.65;3.88;;;21.60;94.00;;;;;;5059718;28;20741;-40
2022/09/04 06:45:28;;;;;;;7.80;3.67;;;21.60;93.60;;;;;;5046547;28;20207;-40
2022/09/04 06:48:25;;;;;;;7.30;3.70;;;21.60;93.60;;;;;;5044690;28;20208;-40
2022/09/04 06:50:57;;;;;;;6.72;4.00;;;21.60;93.50;;;;;;5052490;28;20392;-39
2022/09/04 06:53:44;;;;;;;6.13;3.40;;;21.70;93.60;;;;;;5059528;28;20288;-40
2022/09/04 06:56:23;;;;;;;6.00;3.67;;;21.70;93.60;;;;;;5050382;28;20299;-40
2022/09/04 06:59:05;;;;;;;5.20;3.45;;;21.70;93.50;;;;;;5052721;28;20610;-40
2022/09/04 07:01:39;;;;;;;5.93;4.03;;;21.70;93.60;;;;;;5051133;28;20613;-40
2022/09/04 07:04:18;;;;;;;7.40;4.32;;;21.70;93.60;;;;;;5057548;28;20231;-40
2022/09/04 07:07:18;;;;;;;5.50;3.55;;;21.80;93.60;;;;;;5055558;28;20231;-40
2022/09/04 07:09:51;;;;;;;6.20;3.40;;;21.80;93.60;;;;;;5061071;28;20613;-40
2022/09/04 07:12:38;;;;;;;10.88;3.50;;;21.80;93.60;;;;;;5052011;28;20204;-40
2022/09/04 07:15:39;;;;;;;6.28;3.22;;;21.90;93.70;;;;;;5045417;28;20281;-39
2022/09/04 07:18:22;;;;;;;4.53;3.50;;;21.90;93.80;;;;;;5050194;28;20299;-41
2022/09/04 07:21:19;;;;;;;4.93;3.35;;;22.00;93.80;;;;;;5045479;28;20675;-41
2022/09/04 07:24:13;;;;;;;5.55;3.70;;;22.00;93.80;;;;;;5052425;28;20204;-41
2022/09/04 07:26:43;;;;;;;6.18;3.35;;;22.10;94.00;;;;;;5051165;28;20274;-39
2022/09/04 07:29:28;;;;;;;4.82;3.45;;;22.10;93.90;;;;;;5047857;28;20690;-38
2022/09/04 07:32:31;;;;;;;4.53;3.70;;;22.10;94.10;;;;;;5047035;28;20785;-39
2022/09/04 07:35:07;;;;;;;5.93;3.42;;;22.20;94.00;;;;;;5045141;28;20706;-38
2022/09/04 07:37:48;;;;;;;5.38;3.30;;;22.20;94.00;;;;;;5050529;28;20214;-38
2022/09/04 07:40:28;;;;;;;5.43;2.92;;;22.30;94.00;;;;;;5057188;28;20235;-39
2022/09/04 07:43:11;;;;;;;6.57;3.13;;;22.30;94.00;;;;;;5058770;28;20223;-39
2022/09/04 07:45:46;;;;;;;5.10;3.15;;;22.30;94.00;;;;;;5046185;28;20208;-38
2022/09/04 07:48:32;;;;;;;3.67;2.67;;;22.40;94.10;;;;;;5049327;28;20215;-38
2022/09/04 07:51:20;;;;;;;4.65;2.95;;;22.50;94.10;;;;;;5049486;28;20235;-38
2022/09/04 07:54:10;;;;;;;4.22;2.50;;;22.50;94.20;;;;;;5059014;28;20214;-39
2022/09/04 07:57:17;;;;;;;4.43;2.78;;;22.60;94.10;;;;;;5048562;28;20650;-39
2022/09/04 07:59:57;;;;;;;6.85;3.00;;;22.60;94.30;;;;;;5046665;28;20800;-38
2022/09/04 08:02:37;;;;;;;3.38;2.47;;;22.70;94.20;;;;;;5046938;28;20624;-39
2022/09/04 08:05:25;;;;;;;5.63;2.50;;;22.80;94.30;;;;;;5045310;28;20211;-39
2022/09/04 08:08:13;;;;;;;2.80;2.20;;;22.80;94.30;;;;;;5044833;28;20264;-39
2022/09/04 08:11:30;;;;;;;3.08;2.25;;;22.90;94.40;;;;;;5054828;28;20709;-38
2022/09/04 08:14:17;;;;;;;2.90;2.40;;;23.00;94.30;;;;;;5048818;28;20269;-39
2022/09/04 08:17:24;;;;;;;2.92;2.55;;;23.00;94.30;;;;;;5053084;28;20216;-39
2022/09/04 08:19:57;;;;;;;3.28;2.70;;;23.10;94.40;;;;;;5047145;28;20212;-39
2022/09/04 08:22:38;;;;;;;4.65;2.40;;;23.20;94.40;;;;;;5056868;28;20204;-40
2022/09/04 08:25:24;;;;;;;11.85;4.05;;;23.20;94.40;;;;;;5049378;28;20200;-39
2022/09/04 08:27:53;;;;;;;4.55;2.60;;;23.30;94.40;;;;;;5062952;28;20226;-39
2022/09/04 08:30:20;;;;;;;2.75;2.08;;;23.40;94.40;;;;;;5053346;28;20318;-40
2022/09/04 08:33:03;;;;;;;2.60;2.30;;;23.40;94.40;;;;;;5048262;28;20204;-39
2022/09/04 08:35:41;;;;;;;2.33;2.13;;;23.50;94.50;;;;;;5052206;28;20324;-40
2022/09/04 08:38:24;;;;;;;2.33;2.05;;;23.50;94.40;;;;;;5050867;28;20309;-40
2022/09/04 08:41:12;;;;;;;2.35;2.15;;;23.60;94.40;;;;;;5061988;28;20301;-40
2022/09/04 08:43:58;;;;;;;3.78;2.40;;;23.70;94.50;;;;;;5063992;28;20203;-40
2022/09/04 08:47:07;;;;;;;8.68;2.25;;;23.70;94.50;;;;;;5063245;28;20239;-40
2022/09/04 08:50:01;;;;;;;4.55;2.08;;;23.80;94.50;;;;;;5061142;28;20922;-39
2022/09/04 08:52:49;;;;;;;3.88;2.28;;;23.80;94.30;;;;;;5065132;28;20311;-39
2022/09/04 08:55:45;;;;;;;2.47;2.10;;;23.90;94.40;;;;;;5064975;28;20750;-39
2022/09/04 08:58:36;;;;;;;2.95;2.60;;;23.90;94.40;;;;;;5048960;28;20232;-39
2022/09/04 09:01:41;;;;;;;4.40;2.45;;;24.00;94.40;;;;;;5055102;28;20294;-39
2022/09/04 09:04:21;;;;;;;2.95;1.90;;;24.10;94.50;;;;;;5052075;28;20681;-39
2022/09/04 09:07:47;;;;;;;4.57;2.45;;;24.10;94.40;;;;;;5050764;28;20220;-39
2022/09/04 09:10:33;;;;;;;2.42;2.20;;;24.10;94.50;;;;;;5054464;28;20211;-39
2022/09/04 09:13:38;;;;;;;2.35;2.03;;;24.20;94.30;;;;;;5062833;28;20445;-39
2022/09/04 09:16:21;;;;;;;2.85;2.20;;;24.30;94.40;;;;;;5048094;28;20697;-39
2022/09/04 09:19:01;;;;;;;3.90;2.25;;;24.40;94.40;;;;;;5050191;28;20199;-39
2022/09/04 09:21:48;;;;;;;2.08;1.80;;;24.40;94.40;;;;;;5062643;28;20580;-39
2022/09/04 09:24:39;;;;;;;3.03;2.10;;;24.50;94.40;;;;;;5047338;28;20612;-39
2022/09/04 09:27:27;;;;;;;3.28;2.10;;;24.50;94.30;;;;;;5048034;28;20262;-38
2022/09/04 09:30:18;;;;;;;2.35;1.90;;;24.60;94.00;;;;;;5059382;28;20283;-39
2022/09/04 09:32:49;;;;;;;2.58;2.05;;;24.70;94.20;;;;;;5057550;28;20219;-40
2022/09/04 09:35:40;;;;;;;3.00;2.00;;;24.70;94.10;;;;;;5059660;28;20295;-39
2022/09/04 09:38:26;;;;;;;4.10;2.00;;;24.70;94.10;;;;;;5053885;28;20786;-39
2022/09/04 09:41:24;;;;;;;2.60;1.92;;;24.80;94.10;;;;;;5062634;28;20773;-40
2022/09/04 09:44:00;;;;;;;4.45;1.90;;;24.90;94.20;;;;;;5060540;28;20581;-40
2022/09/04 09:46:33;;;;;;;2.35;1.90;;;25.00;93.90;;;;;;5056151;28;20293;-40
2022/09/04 09:49:43;;;;;;;1.75;1.65;;;25.00;93.80;;;;;;5056850;28;20199;-40
2022/09/04 09:52:47;;;;;;;1.90;1.73;;;25.10;93.30;;;;;;5055579;28;20214;-40
2022/09/04 09:55:58;;;;;;;1.65;1.52;;;25.10;93.60;;;;;;5052101;28;20204;-40
2022/09/04 09:58:37;;;;;;;3.80;1.40;;;25.20;93.30;;;;;;5050290;28;20335;-42
2022/09/04 10:01:23;;;;;;;2.15;1.50;;;25.20;93.40;;;;;;5056732;28;20358;-39
2022/09/04 10:04:21;;;;;;;2.05;1.60;;;25.20;93.40;;;;;;5058542;28;20306;-39
2022/09/04 10:07:23;;;;;;;2.28;1.20;;;25.20;93.10;;;;;;5058048;28;20310;-43
2022/09/04 10:10:23;;;;;;;2.80;1.40;;;25.30;93.10;;;;;;5049826;28;20253;-40
2022/09/04 10:13:13;;;;;;;2.92;1.60;;;25.30;92.90;;;;;;5059470;28;20215;-41
2022/09/04 10:16:23;;;;;;;2.17;1.55;;;25.30;92.40;;;;;;5060649;28;20299;-40
2022/09/04 10:19:11;;;;;;;4.97;1.98;;;25.40;91.50;;;;;;5061785;28;20207;-40
2022/09/04 10:22:07;;;;;;;2.20;1.65;;;25.40;92.20;;;;;;5056173;28;20215;-40
2022/09/04 10:25:05;;;;;;;2.42;1.30;;;25.40;91.70;;;;;;5054775;28;20624;-41
2022/09/04 10:27:43;;;;;;;2.22;1.48;;;25.50;91.60;;;;;;5060468;28;20228;-39
2022/09/04 10:30:21;;;;;;;3.05;1.25;;;25.50;91.10;;;;;;5059071;28;20241;-40
2022/09/04 10:33:03;;;;;;;4.05;1.00;;;25.50;90.20;;;;;;5058174;28;20670;-40
2022/09/04 10:36:18;;;;;;;1.63;1.08;;;25.50;90.20;;;;;;5055403;28;20265;-43
2022/09/04 10:42:32;;;;;;;3.58;1.27;;;25.60;91.10;;;;;;5065875;28;20213;-40
2022/09/04 10:45:17;;;;;;;1.90;1.13;;;25.60;90.50;;;;;;5062455;28;20239;-40
2022/09/04 10:48:11;;;;;;;7.10;1.08;;;25.60;90.60;;;;;;5048213;28;20702;-40
2022/09/04 10:51:15;;;;;;;1.90;1.20;;;25.70;90.70;;;;;;5054635;28;20633;-40
2022/09/04 10:54:13;;;;;;;1.70;1.10;;;25.70;90.60;;;;;;5050792;28;20705;-40
2022/09/04 10:56:57;;;;;;;2.05;1.00;;;25.70;87.60;;;;;;5049338;28;20656;-41
2022/09/04 10:59:49;;;;;;;1.90;1.17;;;25.80;88.20;;;;;;5052685;28;20655;-41
2022/09/04 11:02:38;;;;;;;3.75;1.00;;;25.80;89.10;;;;;;5052501;28;20307;-42
2022/09/04 11:05:24;;;;;;;3.42;1.08;;;25.90;85.30;;;;;;5051801;28;20308;-41
2022/09/04 11:08:19;;;;;;;6.75;1.42;;;25.90;85.60;;;;;;5052374;28;20223;-40
2022/09/04 11:11:18;;;;;;;6.25;1.10;;;26.00;84.90;;;;;;5062676;28;20744;-39
2022/09/04 11:13:45;;;;;;;6.45;1.73;;;26.00;85.50;;;;;;5064726;28;20223;-39
2022/09/04 11:16:44;;;;;;;17.13;1.98;;;26.00;85.20;;;;;;5047222;28;20205;-39
2022/09/04 11:19:32;;;;;;;9.15;1.30;;;26.00;86.10;;;;;;5034311;28;20587;-39
2022/09/04 11:22:26;;;;;;;3.13;1.20;;;26.10;86.80;;;;;;5054275;28;20192;-40
2022/09/04 11:24:58;;;;;;;1.83;1.10;;;26.10;85.30;;;;;;5054419;28;20302;-40
2022/09/04 11:28:19;;;;;;;2.45;0.98;;;26.20;85.80;;;;;;5054732;28;20227;-40
2022/09/04 11:31:19;;;;;;;3.17;1.10;;;26.30;87.80;;;;;;5050253;28;20661;-40
2022/09/04 11:34:05;;;;;;;2.28;1.08;;;26.30;87.50;;;;;;5053383;28;20203;-40
2022/09/04 11:36:58;;;;;;;6.45;1.58;;;26.40;85.90;;;;;;5050790;28;20926;-40
2022/09/04 11:39:52;;;;;;;2.47;1.15;;;26.40;85.50;;;;;;5046432;28;20223;-40
2022/09/04 11:42:51;;;;;;;1.48;0.90;;;26.50;85.30;;;;;;5055298;28;20223;-40
2022/09/04 11:45:40;;;;;;;3.22;1.20;;;26.60;87.00;;;;;;5055756;28;20207;-40
2022/09/04 11:48:16;;;;;;;4.97;1.05;;;26.70;85.80;;;;;;5057169;28;20232;-42
2022/09/04 11:51:15;;;;;;;2.65;1.30;;;26.80;85.20;;;;;;5059131;28;20291;-41
2022/09/04 11:54:00;;;;;;;7.13;1.58;;;26.80;85.10;;;;;;5058783;28;20262;-42
2022/09/04 11:56:36;;;;;;;3.33;1.70;;;26.80;84.80;;;;;;5047691;28;20890;-40
2022/09/04 11:59:20;;;;;;;2.55;1.15;;;26.90;84.50;;;;;;5051791;28;20292;-39
2022/09/04 12:02:17;;;;;;;12.48;2.10;;;27.00;86.00;;;;;;5049672;28;20212;-40
2022/09/04 12:05:23;;;;;;;5.60;1.15;;;27.00;86.40;;;;;;5048528;28;20256;-40
2022/09/04 12:08:30;;;;;;;4.50;1.20;;;27.10;83.10;;;;;;5049810;28;20311;-41
2022/09/04 12:11:03;;;;;;;1.90;0.95;;;27.20;85.00;;;;;;5066533;28;20194;-39
2022/09/04 12:13:43;;;;;;;2.17;1.10;;;27.20;85.00;;;;;;5066038;28;20621;-40
2022/09/04 12:16:19;;;;;;;5.47;1.05;;;27.30;85.10;;;;;;5051181;28;20200;-40
2022/09/04 12:19:08;;;;;;;2.05;1.02;;;27.30;85.30;;;;;;5055103;28;20215;-41
2022/09/04 12:21:42;;;;;;;2.53;1.50;;;27.30;85.80;;;;;;5048588;28;20235;-40
2022/09/04 12:24:36;;;;;;;2.00;1.15;;;27.30;84.80;;;;;;5069402;28;20310;-38
2022/09/04 12:27:30;;;;;;;2.40;1.17;;;27.40;83.80;;;;;;5061041;28;20307;-39
2022/09/04 12:30:04;;;;;;;2.13;1.10;;;27.40;86.30;;;;;;5056297;28;20236;-39
2022/09/04 12:32:48;;;;;;;2.70;1.10;;;27.50;85.90;;;;;;5061249;28;20199;-39
2022/09/04 12:35:25;;;;;;;3.85;1.10;;;27.60;84.90;;;;;;5067406;28;20674;-39
2022/09/04 12:38:29;;;;;;;1.65;1.08;;;27.60;85.40;;;;;;5054387;28;20204;-39
2022/09/04 12:41:24;;;;;;;3.63;1.20;;;27.70;85.60;;;;;;5049214;28;20253;-39
2022/09/04 12:44:05;;;;;;;3.33;1.33;;;27.70;84.50;;;;;;5061192;28;20738;-39
2022/09/04 12:46:47;;;;;;;4.47;1.20;;;27.70;83.60;;;;;;5065235;28;20720;-39
2022/09/04 12:49:49;;;;;;;6.07;1.40;;;27.70;84.50;;;;;;5055810;28;20257;-39
2022/09/04 12:52:25;;;;;;;1.23;0.93;;;27.80;82.50;;;;;;5053181;28;20651;-39
2022/09/04 12:55:14;;;;;;;4.60;1.05;;;27.70;82.70;;;;;;5065281;28;20673;-39
2022/09/04 12:58:17;;;;;;;3.00;1.15;;;27.80;83.70;;;;;;5058321;28;20691;-40
2022/09/04 13:01:12;;;;;;;3.70;1.10;;;27.80;84.50;;;;;;5051923;28;20261;-39
2022/09/04 13:04:03;;;;;;;2.30;0.90;;;27.90;84.90;;;;;;5052737;28;20671;-39
2022/09/04 13:06:49;;;;;;;2.05;1.38;;;27.90;84.90;;;;;;5051486;28;20422;-39
2022/09/04 13:09:44;;;;;;;5.47;1.65;;;28.00;82.60;;;;;;5064278;28;20230;-39
2022/09/04 13:12:38;;;;;;;5.72;1.35;;;28.00;83.60;;;;;;5055264;28;20685;-40
2022/09/04 13:15:31;;;;;;;2.65;1.27;;;28.00;83.90;;;;;;5067108;28;20640;-39
2022/09/04 13:18:36;;;;;;;2.25;1.40;;;28.10;82.90;;;;;;5058476;28;20212;-39
2022/09/04 13:21:20;;;;;;;3.00;1.10;;;28.10;82.70;;;;;;5053603;28;20305;-39
2022/09/04 13:24:09;;;;;;;3.20;1.17;;;28.20;83.20;;;;;;5064042;28;20203;-39
2022/09/04 13:26:59;;;;;;;5.22;1.45;;;28.20;83.90;;;;;;5059130;28;20674;-39
2022/09/04 13:29:57;;;;;;;1.25;1.00;;;28.30;83.10;;;;;;5064558;28;20200;-39
2022/09/04 13:33:03;;;;;;;2.60;1.08;;;28.40;83.70;;;;;;5049638;28;20196;-39
2022/09/04 13:35:37;;;;;;;3.92;1.30;;;28.40;83.90;;;;;;5048547;28;20208;-39
2022/09/04 13:38:14;;;;;;;1.65;1.02;;;28.40;83.10;;;;;;5048723;28;20203;-40
2022/09/04 13:41:15;;;;;;;4.25;1.20;;;28.40;83.20;;;;;;5045591;28;20214;-39
2022/09/04 13:44:09;;;;;;;2.33;1.02;;;28.50;83.70;;;;;;5058848;28;20219;-39
2022/09/04 13:46:57;;;;;;;1.80;1.00;;;28.50;83.10;;;;;;5063132;28;20703;-39
2022/09/04 13:49:36;;;;;;;4.20;1.20;;;28.60;83.20;;;;;;5060788;28;20752;-40
2022/09/04 13:52:26;;;;;;;1.23;1.00;;;28.60;80.30;;;;;;5066293;28;20199;-40
2022/09/04 13:55:02;;;;;;;2.42;1.20;;;28.60;83.20;;;;;;5050216;28;20236;-40
2022/09/04 13:57:41;;;;;;;2.58;1.20;;;28.70;82.10;;;;;;5054982;28;20204;-41
2022/09/04 14:00:15;;;;;;;2.80;1.23;;;28.70;83.60;;;;;;5051070;28;20200;-39
2022/09/04 14:02:49;;;;;;;1.95;1.10;;;28.80;83.90;;;;;;5053389;28;20670;-39
2022/09/04 14:05:22;;;;;;;1.75;0.90;;;28.80;84.10;;;;;;5063603;28;20239;-39
2022/09/04 14:07:58;;;;;;;4.35;1.10;;;28.90;81.80;;;;;;5047670;28;20350;-40
2022/09/04 14:11:03;;;;;;;2.38;1.10;;;28.90;81.00;;;;;;5070164;28;20202;-39
2022/09/04 14:13:56;;;;;;;1.48;1.10;;;29.00;80.30;;;;;;5046949;28;20580;-39
2022/09/04 14:16:24;;;;;;;1.65;1.17;;;29.00;81.50;;;;;;5051616;28;20211;-43
2022/09/04 14:19:00;;;;;;;1.77;1.10;;;29.00;81.40;;;;;;5057416;28;20207;-39
2022/09/04 14:21:48;;;;;;;1.52;1.02;;;29.10;82.20;;;;;;5046728;28;20199;-39
2022/09/04 14:24:24;;;;;;;1.52;0.80;;;29.10;80.70;;;;;;5050868;28;20556;-38
2022/09/04 14:27:06;;;;;;;1.95;1.08;;;29.20;80.60;;;;;;5060193;28;20514;-38
2022/09/04 14:30:03;;;;;;;5.10;1.40;;;29.20;77.70;;;;;;5063825;28;20210;-40
2022/09/04 14:32:39;;;;;;;3.50;1.08;;;29.20;78.50;;;;;;5051912;28;20209;-38
2022/09/04 14:35:38;;;;;;;2.63;1.13;;;29.20;80.20;;;;;;5057921;28;20207;-38
2022/09/04 14:38:29;;;;;;;2.20;1.15;;;29.20;81.10;;;;;;5061643;28;20204;-38